sensor_id;sensor_type;location;lat;lon;timestamp;temperature;humidity
947;DHT22;460;48.734;9.152;2022-11-24T00:00:14;6.50;99.90
947;DHT22;460;48.734;9.152;2022-11-24T00:02:41;5.60;99.90
947;DHT22;460;48.734;9.152;2022-11-24T00:05:08;5.60;99.90
947;DHT22;460;48.734;9.152;2022-11-24T00:07:35;5.60;99.90
947;DHT22;460;48.734;9.152;2022-11-24T00:10:03;5.70;99.90
947;DHT22;460;48.734;9.152;2022-11-24T00:12:31;5.70;99.90
947;DHT22;460;48.734;9.152;2022-11-24T00:14:58;5.70;99.90
947;DHT22;460;48.734;9.152;2022-11-24T00:17:24;5.80;99.90
947;DHT22;460;48.734;9.152;2022-11-24T00:19:53;5.80;99.90
947;DHT22;460;48.734;9.152;2022-11-24T00:22:21;5.80;99.90
947;DHT22;460;48.734;9.152;2022-11-24T00:24:47;5.90;99.90
947;DHT22;460;48.734;9.152;2022-11-24T00:27:15;5.70;99.90
947;DHT22;460;48.734;9.152;2022-11-24T00:29:43;5.70;99.90
947;DHT22;460;48.734;9.152;2022-11-24T00:32:10;5.80;99.90
947;DHT22;460;48.734;9.152;2022-11-24T00:34:37;5.80;99.90
947;DHT22;460;48.734;9.152;2022-11-24T00:37:04;5.80;99.90
947;DHT22;460;48.734;9.152;2022-11-24T00:39:31;5.90;99.90
947;DHT22;460;48.734;9.152;2022-11-24T00:41:57;5.80;99.90
947;DHT22;460;48.734;9.152;2022-11-24T00:44:24;5.70;99.90
947;DHT22;460;48.734;9.152;2022-11-24T00:46:52;5.80;99.90
947;DHT22;460;48.734;9.152;2022-11-24T00:49:19;5.70;99.90
947;DHT22;460;48.734;9.152;2022-11-24T00:51:46;5.70;99.90
947;DHT22;460;48.734;9.152;2022-11-24T00:54:13;5.70;99.90
947;DHT22;460;48.734;9.152;2022-11-24T00:56:40;5.30;99.90
947;DHT22;460;48.734;9.152;2022-11-24T00:59:06;5.50;99.90
947;DHT22;460;48.734;9.152;2022-11-24T01:01:33;5.50;99.90
947;DHT22;460;48.734;9.152;2022-11-24T01:04:02;5.50;99.90
947;DHT22;460;48.734;9.152;2022-11-24T01:06:30;5.40;99.90
947;DHT22;460;48.734;9.152;2022-11-24T01:08:58;5.30;99.90
947;DHT22;460;48.734;9.152;2022-11-24T01:11:26;5.20;99.90
947;DHT22;460;48.734;9.152;2022-11-24T01:13:55;5.20;99.90
947;DHT22;460;48.734;9.152;2022-11-24T01:16:25;5.10;99.90
947;DHT22;460;48.734;9.152;2022-11-24T01:18:52;5.20;99.90
947;DHT22;460;48.734;9.152;2022-11-24T01:21:21;5.20;99.90
947;DHT22;460;48.734;9.152;2022-11-24T01:23:48;5.20;99.90
947;DHT22;460;48.734;9.152;2022-11-24T01:26:17;5.20;99.90
947;DHT22;460;48.734;9.152;2022-11-24T01:28:44;5.20;99.90
947;DHT22;460;48.734;9.152;2022-11-24T01:31:11;5.20;99.90
947;DHT22;460;48.734;9.152;2022-11-24T01:33:39;5.10;99.90
947;DHT22;460;48.734;9.152;2022-11-24T01:36:06;5.10;99.90
947;DHT22;460;48.734;9.152;2022-11-24T01:38:34;5.10;99.90
947;DHT22;460;48.734;9.152;2022-11-24T01:41:02;5.10;99.90
947;DHT22;460;48.734;9.152;2022-11-24T01:43:29;5.00;99.90
947;DHT22;460;48.734;9.152;2022-11-24T01:45:56;5.80;99.90
947;DHT22;460;48.734;9.152;2022-11-24T01:48:26;5.00;99.90
947;DHT22;460;48.734;9.152;2022-11-24T01:50:58;5.00;99.90
947;DHT22;460;48.734;9.152;2022-11-24T01:53:27;5.40;99.90
947;DHT22;460;48.734;9.152;2022-11-24T01:55:56;5.10;99.90
947;DHT22;460;48.734;9.152;2022-11-24T01:58:26;5.00;99.90
947;DHT22;460;48.734;9.152;2022-11-24T02:00:54;5.20;99.90
947;DHT22;460;48.734;9.152;2022-11-24T02:03:24;5.20;99.90
947;DHT22;460;48.734;9.152;2022-11-24T02:05:57;5.30;99.90
947;DHT22;460;48.734;9.152;2022-11-24T02:08:29;5.40;99.90
947;DHT22;460;48.734;9.152;2022-11-24T02:11:00;5.50;99.90
947;DHT22;460;48.734;9.152;2022-11-24T02:13:28;5.50;99.90
947;DHT22;460;48.734;9.152;2022-11-24T02:15:55;5.60;99.90
947;DHT22;460;48.734;9.152;2022-11-24T02:18:22;5.60;99.90
947;DHT22;460;48.734;9.152;2022-11-24T02:20:50;5.60;99.90
947;DHT22;460;48.734;9.152;2022-11-24T02:23:21;5.60;99.90
947;DHT22;460;48.734;9.152;2022-11-24T02:25:57;5.70;99.90
947;DHT22;460;48.734;9.152;2022-11-24T02:28:29;5.70;99.90
947;DHT22;460;48.734;9.152;2022-11-24T02:30:57;5.70;99.90
947;DHT22;460;48.734;9.152;2022-11-24T02:33:26;5.70;99.90
947;DHT22;460;48.734;9.152;2022-11-24T02:35:53;5.60;99.90
947;DHT22;460;48.734;9.152;2022-11-24T02:38:29;5.70;99.90
947;DHT22;460;48.734;9.152;2022-11-24T02:40:57;5.70;99.90
947;DHT22;460;48.734;9.152;2022-11-24T02:43:31;5.60;99.90
947;DHT22;460;48.734;9.152;2022-11-24T02:46:00;5.70;99.90
947;DHT22;460;48.734;9.152;2022-11-24T02:48:27;5.60;99.90
947;DHT22;460;48.734;9.152;2022-11-24T02:50:56;5.40;99.90
947;DHT22;460;48.734;9.152;2022-11-24T02:53:23;5.50;99.90
947;DHT22;460;48.734;9.152;2022-11-24T02:55:50;5.70;99.90
947;DHT22;460;48.734;9.152;2022-11-24T02:58:17;5.60;99.90
947;DHT22;460;48.734;9.152;2022-11-24T03:00:46;5.50;99.90
947;DHT22;460;48.734;9.152;2022-11-24T03:03:13;5.50;99.90
947;DHT22;460;48.734;9.152;2022-11-24T03:05:40;5.50;99.90
947;DHT22;460;48.734;9.152;2022-11-24T03:08:06;5.20;99.90
947;DHT22;460;48.734;9.152;2022-11-24T03:10:33;5.40;99.90
947;DHT22;460;48.734;9.152;2022-11-24T03:13:00;5.40;99.90
947;DHT22;460;48.734;9.152;2022-11-24T03:15:27;5.40;99.90
947;DHT22;460;48.734;9.152;2022-11-24T03:17:55;5.60;99.90
947;DHT22;460;48.734;9.152;2022-11-24T03:20:23;5.50;99.90
947;DHT22;460;48.734;9.152;2022-11-24T03:22:50;5.50;99.90
947;DHT22;460;48.734;9.152;2022-11-24T03:25:17;5.40;99.90
947;DHT22;460;48.734;9.152;2022-11-24T03:27:45;5.40;99.90
947;DHT22;460;48.734;9.152;2022-11-24T03:30:12;5.40;99.90
947;DHT22;460;48.734;9.152;2022-11-24T03:32:40;5.40;99.90
947;DHT22;460;48.734;9.152;2022-11-24T03:35:09;5.40;99.90
947;DHT22;460;48.734;9.152;2022-11-24T03:37:36;5.70;99.90
947;DHT22;460;48.734;9.152;2022-11-24T03:40:04;5.40;99.90
947;DHT22;460;48.734;9.152;2022-11-24T03:42:31;5.40;99.90
947;DHT22;460;48.734;9.152;2022-11-24T03:44:58;5.40;99.90
947;DHT22;460;48.734;9.152;2022-11-24T03:47:25;5.40;99.90
947;DHT22;460;48.734;9.152;2022-11-24T03:49:53;5.40;99.90
947;DHT22;460;48.734;9.152;2022-11-24T03:52:21;5.40;99.90
947;DHT22;460;48.734;9.152;2022-11-24T03:54:51;5.40;99.90
947;DHT22;460;48.734;9.152;2022-11-24T03:57:18;5.80;99.90
947;DHT22;460;48.734;9.152;2022-11-24T03:59:45;5.40;99.90
947;DHT22;460;48.734;9.152;2022-11-24T04:02:12;5.50;99.90
947;DHT22;460;48.734;9.152;2022-11-24T04:04:39;5.50;99.90
947;DHT22;460;48.734;9.152;2022-11-24T04:07:06;5.40;99.90
947;DHT22;460;48.734;9.152;2022-11-24T04:09:34;5.40;99.90
947;DHT22;460;48.734;9.152;2022-11-24T04:12:00;5.30;99.90
947;DHT22;460;48.734;9.152;2022-11-24T04:14:44;5.40;99.90
947;DHT22;460;48.734;9.152;2022-11-24T04:17:11;5.40;99.90
947;DHT22;460;48.734;9.152;2022-11-24T04:19:38;5.40;99.90
947;DHT22;460;48.734;9.152;2022-11-24T04:22:05;5.40;99.90
947;DHT22;460;48.734;9.152;2022-11-24T04:24:32;5.20;99.90
947;DHT22;460;48.734;9.152;2022-11-24T04:27:00;5.40;99.90
947;DHT22;460;48.734;9.152;2022-11-24T04:29:27;5.40;99.90
947;DHT22;460;48.734;9.152;2022-11-24T04:31:53;5.40;99.90
947;DHT22;460;48.734;9.152;2022-11-24T04:34:20;5.40;99.90
947;DHT22;460;48.734;9.152;2022-11-24T04:36:47;5.40;99.90
947;DHT22;460;48.734;9.152;2022-11-24T04:39:14;5.50;99.90
947;DHT22;460;48.734;9.152;2022-11-24T04:41:42;5.70;99.90
947;DHT22;460;48.734;9.152;2022-11-24T04:44:10;5.40;99.90
947;DHT22;460;48.734;9.152;2022-11-24T04:46:37;5.90;99.90
947;DHT22;460;48.734;9.152;2022-11-24T04:49:04;5.50;99.90
947;DHT22;460;48.734;9.152;2022-11-24T04:51:31;5.50;99.90
947;DHT22;460;48.734;9.152;2022-11-24T04:53:57;5.60;99.90
947;DHT22;460;48.734;9.152;2022-11-24T04:56:24;6.30;99.90
947;DHT22;460;48.734;9.152;2022-11-24T04:58:51;5.50;99.90
947;DHT22;460;48.734;9.152;2022-11-24T05:01:19;5.80;99.90
947;DHT22;460;48.734;9.152;2022-11-24T05:03:46;6.00;99.90
947;DHT22;460;48.734;9.152;2022-11-24T05:06:13;5.40;99.90
947;DHT22;460;48.734;9.152;2022-11-24T05:08:40;5.40;99.90
947;DHT22;460;48.734;9.152;2022-11-24T05:11:06;5.40;99.90
947;DHT22;460;48.734;9.152;2022-11-24T05:13:33;5.40;99.90
947;DHT22;460;48.734;9.152;2022-11-24T05:16:00;5.40;99.90
947;DHT22;460;48.734;9.152;2022-11-24T05:18:28;5.40;99.90
947;DHT22;460;48.734;9.152;2022-11-24T05:20:56;5.40;99.90
947;DHT22;460;48.734;9.152;2022-11-24T05:23:24;5.70;99.90
947;DHT22;460;48.734;9.152;2022-11-24T05:25:51;5.40;99.90
947;DHT22;460;48.734;9.152;2022-11-24T05:28:18;5.60;99.90
947;DHT22;460;48.734;9.152;2022-11-24T05:30:45;5.40;99.90
947;DHT22;460;48.734;9.152;2022-11-24T05:33:14;5.40;99.90
947;DHT22;460;48.734;9.152;2022-11-24T05:35:45;5.30;99.90
947;DHT22;460;48.734;9.152;2022-11-24T05:38:14;5.40;99.90
947;DHT22;460;48.734;9.152;2022-11-24T05:40:41;5.30;99.90
947;DHT22;460;48.734;9.152;2022-11-24T05:43:09;5.30;99.90
947;DHT22;460;48.734;9.152;2022-11-24T05:45:36;5.30;99.90
947;DHT22;460;48.734;9.152;2022-11-24T05:48:04;5.30;99.90
947;DHT22;460;48.734;9.152;2022-11-24T05:50:32;5.40;99.90
947;DHT22;460;48.734;9.152;2022-11-24T05:53:02;5.40;99.90
947;DHT22;460;48.734;9.152;2022-11-24T05:55:31;5.40;99.90
947;DHT22;460;48.734;9.152;2022-11-24T05:57:59;5.30;99.90
947;DHT22;460;48.734;9.152;2022-11-24T06:00:26;5.50;99.90
947;DHT22;460;48.734;9.152;2022-11-24T06:02:53;5.40;99.90
947;DHT22;460;48.734;9.152;2022-11-24T06:05:20;5.50;99.90
947;DHT22;460;48.734;9.152;2022-11-24T06:07:47;5.30;99.90
947;DHT22;460;48.734;9.152;2022-11-24T06:10:16;5.50;99.90
947;DHT22;460;48.734;9.152;2022-11-24T06:12:44;5.50;99.90
947;DHT22;460;48.734;9.152;2022-11-24T06:15:11;5.40;99.90
947;DHT22;460;48.734;9.152;2022-11-24T06:17:39;5.40;99.90
947;DHT22;460;48.734;9.152;2022-11-24T06:20:07;5.50;99.90
947;DHT22;460;48.734;9.152;2022-11-24T06:22:34;5.50;99.90
947;DHT22;460;48.734;9.152;2022-11-24T06:25:01;5.60;99.90
947;DHT22;460;48.734;9.152;2022-11-24T06:27:29;5.60;99.90
947;DHT22;460;48.734;9.152;2022-11-24T06:29:56;5.70;99.90
947;DHT22;460;48.734;9.152;2022-11-24T06:32:23;5.60;99.90
947;DHT22;460;48.734;9.152;2022-11-24T06:34:50;5.70;99.90
947;DHT22;460;48.734;9.152;2022-11-24T06:37:17;5.70;99.90
947;DHT22;460;48.734;9.152;2022-11-24T06:39:44;5.90;99.90
947;DHT22;460;48.734;9.152;2022-11-24T06:42:11;5.80;99.90
947;DHT22;460;48.734;9.152;2022-11-24T06:44:39;5.70;99.90
947;DHT22;460;48.734;9.152;2022-11-24T06:47:06;5.80;99.90
947;DHT22;460;48.734;9.152;2022-11-24T06:49:33;5.70;99.90
947;DHT22;460;48.734;9.152;2022-11-24T06:52:00;5.80;99.90
947;DHT22;460;48.734;9.152;2022-11-24T06:54:26;6.00;99.90
947;DHT22;460;48.734;9.152;2022-11-24T06:56:55;5.90;99.90
947;DHT22;460;48.734;9.152;2022-11-24T06:59:22;6.00;99.90
947;DHT22;460;48.734;9.152;2022-11-24T07:01:50;5.90;99.90
947;DHT22;460;48.734;9.152;2022-11-24T07:04:17;6.00;99.90
947;DHT22;460;48.734;9.152;2022-11-24T07:06:44;6.00;99.90
947;DHT22;460;48.734;9.152;2022-11-24T07:09:12;6.10;99.90
947;DHT22;460;48.734;9.152;2022-11-24T07:11:40;6.10;99.90
947;DHT22;460;48.734;9.152;2022-11-24T07:14:07;6.20;99.90
947;DHT22;460;48.734;9.152;2022-11-24T07:16:34;6.20;99.90
947;DHT22;460;48.734;9.152;2022-11-24T07:19:03;6.20;99.90
947;DHT22;460;48.734;9.152;2022-11-24T07:21:30;6.10;99.90
947;DHT22;460;48.734;9.152;2022-11-24T07:23:57;6.20;99.90
947;DHT22;460;48.734;9.152;2022-11-24T07:26:24;6.20;99.90
947;DHT22;460;48.734;9.152;2022-11-24T07:28:51;6.20;99.90
947;DHT22;460;48.734;9.152;2022-11-24T07:31:19;6.20;99.90
947;DHT22;460;48.734;9.152;2022-11-24T07:33:47;6.30;99.90
947;DHT22;460;48.734;9.152;2022-11-24T07:36:16;6.30;99.90
947;DHT22;460;48.734;9.152;2022-11-24T07:38:43;6.60;99.90
947;DHT22;460;48.734;9.152;2022-11-24T07:41:12;6.30;99.90
947;DHT22;460;48.734;9.152;2022-11-24T07:43:39;6.90;99.90
947;DHT22;460;48.734;9.152;2022-11-24T07:46:07;6.20;99.90
947;DHT22;460;48.734;9.152;2022-11-24T07:48:35;6.30;99.90
947;DHT22;460;48.734;9.152;2022-11-24T07:51:03;6.10;99.90
947;DHT22;460;48.734;9.152;2022-11-24T07:53:32;6.30;99.90
947;DHT22;460;48.734;9.152;2022-11-24T07:56:01;6.40;99.90
947;DHT22;460;48.734;9.152;2022-11-24T07:58:29;6.40;99.90
947;DHT22;460;48.734;9.152;2022-11-24T08:00:56;6.50;99.90
947;DHT22;460;48.734;9.152;2022-11-24T08:03:24;6.40;99.90
947;DHT22;460;48.734;9.152;2022-11-24T08:05:54;6.50;99.90
947;DHT22;460;48.734;9.152;2022-11-24T08:08:20;6.40;99.90
947;DHT22;460;48.734;9.152;2022-11-24T08:10:49;6.40;99.90
947;DHT22;460;48.734;9.152;2022-11-24T08:13:16;6.50;99.90
947;DHT22;460;48.734;9.152;2022-11-24T08:15:43;6.50;99.90
947;DHT22;460;48.734;9.152;2022-11-24T08:18:10;6.50;99.90
947;DHT22;460;48.734;9.152;2022-11-24T08:20:37;6.60;99.90
947;DHT22;460;48.734;9.152;2022-11-24T08:23:06;6.60;99.90
947;DHT22;460;48.734;9.152;2022-11-24T08:25:33;7.00;99.90
947;DHT22;460;48.734;9.152;2022-11-24T08:28:03;6.60;99.90
947;DHT22;460;48.734;9.152;2022-11-24T08:30:30;6.60;99.90
947;DHT22;460;48.734;9.152;2022-11-24T08:32:57;6.60;99.90
947;DHT22;460;48.734;9.152;2022-11-24T08:35:24;6.60;99.90
947;DHT22;460;48.734;9.152;2022-11-24T08:37:51;6.60;99.90
947;DHT22;460;48.734;9.152;2022-11-24T08:40:18;6.80;99.90
947;DHT22;460;48.734;9.152;2022-11-24T08:42:45;6.50;99.90
947;DHT22;460;48.734;9.152;2022-11-24T08:45:13;6.50;99.90
947;DHT22;460;48.734;9.152;2022-11-24T08:47:40;6.40;99.90
947;DHT22;460;48.734;9.152;2022-11-24T08:50:08;6.50;99.90
947;DHT22;460;48.734;9.152;2022-11-24T08:52:35;6.60;99.90
947;DHT22;460;48.734;9.152;2022-11-24T08:55:02;6.60;99.90
947;DHT22;460;48.734;9.152;2022-11-24T08:57:29;6.60;99.90
947;DHT22;460;48.734;9.152;2022-11-24T08:59:55;6.70;99.90
947;DHT22;460;48.734;9.152;2022-11-24T09:02:24;6.70;99.90
947;DHT22;460;48.734;9.152;2022-11-24T09:04:50;6.60;99.90
947;DHT22;460;48.734;9.152;2022-11-24T09:07:17;6.70;99.90
947;DHT22;460;48.734;9.152;2022-11-24T09:09:44;6.80;99.90
947;DHT22;460;48.734;9.152;2022-11-24T09:12:11;7.70;99.90
947;DHT22;460;48.734;9.152;2022-11-24T09:14:38;6.70;99.90
947;DHT22;460;48.734;9.152;2022-11-24T09:17:05;6.90;99.90
947;DHT22;460;48.734;9.152;2022-11-24T09:19:33;6.90;99.90
947;DHT22;460;48.734;9.152;2022-11-24T09:22:00;7.60;99.90
947;DHT22;460;48.734;9.152;2022-11-24T09:24:27;7.00;99.90
947;DHT22;460;48.734;9.152;2022-11-24T09:26:54;6.90;99.90
947;DHT22;460;48.734;9.152;2022-11-24T09:29:21;6.80;99.90
947;DHT22;460;48.734;9.152;2022-11-24T09:31:48;6.90;99.90
947;DHT22;460;48.734;9.152;2022-11-24T09:34:15;6.90;99.90
947;DHT22;460;48.734;9.152;2022-11-24T09:36:43;6.90;99.90
947;DHT22;460;48.734;9.152;2022-11-24T09:39:10;7.00;99.90
947;DHT22;460;48.734;9.152;2022-11-24T09:41:52;6.90;99.90
947;DHT22;460;48.734;9.152;2022-11-24T09:44:47;6.90;99.90
947;DHT22;460;48.734;9.152;2022-11-24T09:47:21;6.80;99.90
947;DHT22;460;48.734;9.152;2022-11-24T09:49:53;6.90;99.90
947;DHT22;460;48.734;9.152;2022-11-24T09:52:36;7.00;99.90
947;DHT22;460;48.734;9.152;2022-11-24T09:55:17;7.10;99.90
947;DHT22;460;48.734;9.152;2022-11-24T09:57:52;7.10;99.90
947;DHT22;460;48.734;9.152;2022-11-24T10:00:21;7.20;99.90
947;DHT22;460;48.734;9.152;2022-11-24T10:02:48;7.20;99.90
947;DHT22;460;48.734;9.152;2022-11-24T10:05:15;7.20;99.90
947;DHT22;460;48.734;9.152;2022-11-24T10:07:48;7.10;99.90
947;DHT22;460;48.734;9.152;2022-11-24T10:10:19;7.20;99.90
947;DHT22;460;48.734;9.152;2022-11-24T10:12:54;7.30;99.90
947;DHT22;460;48.734;9.152;2022-11-24T10:15:32;7.10;99.90
947;DHT22;460;48.734;9.152;2022-11-24T10:18:33;7.30;99.90
947;DHT22;460;48.734;9.152;2022-11-24T10:21:19;7.50;99.90
947;DHT22;460;48.734;9.152;2022-11-24T10:24:05;7.50;99.90
947;DHT22;460;48.734;9.152;2022-11-24T10:26:36;7.90;99.90
947;DHT22;460;48.734;9.152;2022-11-24T10:29:14;7.80;99.90
947;DHT22;460;48.734;9.152;2022-11-24T10:31:44;8.00;99.90
947;DHT22;460;48.734;9.152;2022-11-24T10:34:15;8.00;99.90
947;DHT22;460;48.734;9.152;2022-11-24T10:36:46;8.10;99.90
947;DHT22;460;48.734;9.152;2022-11-24T10:39:19;8.20;99.90
947;DHT22;460;48.734;9.152;2022-11-24T10:41:50;8.20;99.90
947;DHT22;460;48.734;9.152;2022-11-24T10:44:18;8.10;99.90
947;DHT22;460;48.734;9.152;2022-11-24T10:46:45;8.10;99.90
947;DHT22;460;48.734;9.152;2022-11-24T10:49:16;8.00;99.90
947;DHT22;460;48.734;9.152;2022-11-24T10:51:56;8.20;99.90
947;DHT22;460;48.734;9.152;2022-11-24T10:54:27;8.10;99.90
947;DHT22;460;48.734;9.152;2022-11-24T10:56:54;8.10;99.90
947;DHT22;460;48.734;9.152;2022-11-24T10:59:31;8.00;99.90
947;DHT22;460;48.734;9.152;2022-11-24T11:01:58;8.20;99.90
947;DHT22;460;48.734;9.152;2022-11-24T11:04:27;8.10;99.90
947;DHT22;460;48.734;9.152;2022-11-24T11:07:08;8.30;99.90
947;DHT22;460;48.734;9.152;2022-11-24T11:09:37;8.30;99.90
947;DHT22;460;48.734;9.152;2022-11-24T11:12:11;8.20;99.90
947;DHT22;460;48.734;9.152;2022-11-24T11:14:38;8.20;99.90
947;DHT22;460;48.734;9.152;2022-11-24T11:17:31;8.30;99.90
947;DHT22;460;48.734;9.152;2022-11-24T11:20:02;8.50;99.90
947;DHT22;460;48.734;9.152;2022-11-24T11:22:31;8.30;99.90
947;DHT22;460;48.734;9.152;2022-11-24T11:25:05;8.50;99.90
947;DHT22;460;48.734;9.152;2022-11-24T11:27:33;8.50;99.90
947;DHT22;460;48.734;9.152;2022-11-24T11:30:16;8.70;99.90
947;DHT22;460;48.734;9.152;2022-11-24T11:32:51;8.70;99.90
947;DHT22;460;48.734;9.152;2022-11-24T11:35:20;8.90;99.90
947;DHT22;460;48.734;9.152;2022-11-24T11:37:47;9.00;99.90
947;DHT22;460;48.734;9.152;2022-11-24T11:40:20;9.10;99.90
947;DHT22;460;48.734;9.152;2022-11-24T11:42:50;9.20;99.90
947;DHT22;460;48.734;9.152;2022-11-24T11:45:21;9.30;99.90
947;DHT22;460;48.734;9.152;2022-11-24T11:47:52;9.30;99.90
947;DHT22;460;48.734;9.152;2022-11-24T11:50:24;9.40;99.90
947;DHT22;460;48.734;9.152;2022-11-24T11:53:08;9.40;99.90
947;DHT22;460;48.734;9.152;2022-11-24T11:55:49;9.20;99.90
947;DHT22;460;48.734;9.152;2022-11-24T11:58:56;9.20;99.90
947;DHT22;460;48.734;9.152;2022-11-24T12:01:34;9.20;99.90
947;DHT22;460;48.734;9.152;2022-11-24T12:04:12;9.10;99.90
947;DHT22;460;48.734;9.152;2022-11-24T12:06:54;9.00;99.90
947;DHT22;460;48.734;9.152;2022-11-24T12:09:31;8.90;99.90
947;DHT22;460;48.734;9.152;2022-11-24T12:12:22;8.90;99.90
947;DHT22;460;48.734;9.152;2022-11-24T12:14:57;8.90;99.90
947;DHT22;460;48.734;9.152;2022-11-24T12:17:32;8.90;99.90
947;DHT22;460;48.734;9.152;2022-11-24T12:20:13;8.80;99.90
947;DHT22;460;48.734;9.152;2022-11-24T12:22:45;8.80;99.90
947;DHT22;460;48.734;9.152;2022-11-24T12:25:23;8.70;99.90
947;DHT22;460;48.734;9.152;2022-11-24T12:28:04;8.70;99.90
947;DHT22;460;48.734;9.152;2022-11-24T12:30:37;8.60;99.90
947;DHT22;460;48.734;9.152;2022-11-24T12:33:26;8.60;99.90
947;DHT22;460;48.734;9.152;2022-11-24T12:36:01;8.70;99.90
947;DHT22;460;48.734;9.152;2022-11-24T12:38:38;8.80;99.90
947;DHT22;460;48.734;9.152;2022-11-24T12:41:20;8.90;99.90
947;DHT22;460;48.734;9.152;2022-11-24T12:43:53;9.00;99.90
947;DHT22;460;48.734;9.152;2022-11-24T12:46:30;9.10;99.90
947;DHT22;460;48.734;9.152;2022-11-24T12:49:06;9.10;99.90
947;DHT22;460;48.734;9.152;2022-11-24T12:51:41;8.90;99.90
947;DHT22;460;48.734;9.152;2022-11-24T12:54:12;9.10;99.90
947;DHT22;460;48.734;9.152;2022-11-24T12:56:42;9.10;99.90
947;DHT22;460;48.734;9.152;2022-11-24T12:59:18;9.10;99.90
947;DHT22;460;48.734;9.152;2022-11-24T13:01:52;9.10;99.90
947;DHT22;460;48.734;9.152;2022-11-24T13:04:30;9.20;99.90
947;DHT22;460;48.734;9.152;2022-11-24T13:07:03;9.10;99.90
947;DHT22;460;48.734;9.152;2022-11-24T13:09:34;9.00;99.90
947;DHT22;460;48.734;9.152;2022-11-24T13:12:09;9.00;99.60
947;DHT22;460;48.734;9.152;2022-11-24T13:14:38;8.90;99.90
947;DHT22;460;48.734;9.152;2022-11-24T13:17:23;9.00;99.90
947;DHT22;460;48.734;9.152;2022-11-24T13:20:13;8.80;99.90
947;DHT22;460;48.734;9.152;2022-11-24T13:22:45;8.50;99.90
947;DHT22;460;48.734;9.152;2022-11-24T13:25:16;8.80;99.90
947;DHT22;460;48.734;9.152;2022-11-24T13:27:46;8.80;99.90
947;DHT22;460;48.734;9.152;2022-11-24T13:33:30;8.70;99.90
947;DHT22;460;48.734;9.152;2022-11-24T13:39:07;8.70;99.90
947;DHT22;460;48.734;9.152;2022-11-24T13:42:07;8.70;99.90
947;DHT22;460;48.734;9.152;2022-11-24T13:44:53;8.70;99.90
947;DHT22;460;48.734;9.152;2022-11-24T13:47:39;8.70;99.90
947;DHT22;460;48.734;9.152;2022-11-24T13:50:40;8.70;99.90
947;DHT22;460;48.734;9.152;2022-11-24T13:53:24;8.70;99.90
947;DHT22;460;48.734;9.152;2022-11-24T13:55:56;8.80;99.90
947;DHT22;460;48.734;9.152;2022-11-24T13:58:28;8.80;99.90
947;DHT22;460;48.734;9.152;2022-11-24T14:01:09;8.80;99.90
947;DHT22;460;48.734;9.152;2022-11-24T14:03:41;8.80;99.90
947;DHT22;460;48.734;9.152;2022-11-24T14:06:16;8.80;99.90
947;DHT22;460;48.734;9.152;2022-11-24T14:08:47;8.90;99.90
947;DHT22;460;48.734;9.152;2022-11-24T14:11:16;8.90;99.90
947;DHT22;460;48.734;9.152;2022-11-24T14:13:43;8.90;99.90
947;DHT22;460;48.734;9.152;2022-11-24T14:16:15;8.90;99.90
947;DHT22;460;48.734;9.152;2022-11-24T14:18:43;8.70;99.90
947;DHT22;460;48.734;9.152;2022-11-24T14:21:24;8.80;99.90
947;DHT22;460;48.734;9.152;2022-11-24T14:23:54;8.70;99.90
947;DHT22;460;48.734;9.152;2022-11-24T14:26:23;8.60;99.90
947;DHT22;460;48.734;9.152;2022-11-24T14:28:52;8.50;99.90
947;DHT22;460;48.734;9.152;2022-11-24T14:31:22;8.60;99.70
947;DHT22;460;48.734;9.152;2022-11-24T14:33:49;8.50;99.90
947;DHT22;460;48.734;9.152;2022-11-24T14:36:17;8.40;99.90
947;DHT22;460;48.734;9.152;2022-11-24T14:38:46;8.40;99.90
947;DHT22;460;48.734;9.152;2022-11-24T14:41:19;8.40;99.90
947;DHT22;460;48.734;9.152;2022-11-24T14:43:49;8.50;99.90
947;DHT22;460;48.734;9.152;2022-11-24T14:46:28;8.40;99.90
947;DHT22;460;48.734;9.152;2022-11-24T14:48:55;8.40;99.90
947;DHT22;460;48.734;9.152;2022-11-24T14:51:24;8.40;99.90
947;DHT22;460;48.734;9.152;2022-11-24T14:53:58;8.30;99.90
947;DHT22;460;48.734;9.152;2022-11-24T14:56:33;8.40;99.90
947;DHT22;460;48.734;9.152;2022-11-24T14:59:00;8.50;99.90
947;DHT22;460;48.734;9.152;2022-11-24T15:01:30;8.60;99.90
947;DHT22;460;48.734;9.152;2022-11-24T15:04:11;8.60;99.80
947;DHT22;460;48.734;9.152;2022-11-24T15:06:39;8.60;99.90
947;DHT22;460;48.734;9.152;2022-11-24T15:09:19;8.50;99.90
947;DHT22;460;48.734;9.152;2022-11-24T15:11:47;8.50;99.90
947;DHT22;460;48.734;9.152;2022-11-24T15:14:32;8.50;99.90
947;DHT22;460;48.734;9.152;2022-11-24T15:17:02;8.40;99.90
947;DHT22;460;48.734;9.152;2022-11-24T15:19:32;8.30;99.90
947;DHT22;460;48.734;9.152;2022-11-24T15:22:00;8.00;99.90
947;DHT22;460;48.734;9.152;2022-11-24T15:24:52;8.00;99.90
947;DHT22;460;48.734;9.152;2022-11-24T15:27:20;8.00;99.90
947;DHT22;460;48.734;9.152;2022-11-24T15:29:47;7.90;99.90
947;DHT22;460;48.734;9.152;2022-11-24T15:32:15;7.80;99.90
947;DHT22;460;48.734;9.152;2022-11-24T15:34:42;7.70;99.90
947;DHT22;460;48.734;9.152;2022-11-24T15:37:09;7.70;99.90
947;DHT22;460;48.734;9.152;2022-11-24T15:39:36;7.70;99.90
947;DHT22;460;48.734;9.152;2022-11-24T15:42:04;7.50;99.90
947;DHT22;460;48.734;9.152;2022-11-24T15:44:31;7.40;99.90
947;DHT22;460;48.734;9.152;2022-11-24T15:46:59;7.40;99.90
947;DHT22;460;48.734;9.152;2022-11-24T15:49:26;7.30;99.90
947;DHT22;460;48.734;9.152;2022-11-24T15:51:53;7.20;99.90
947;DHT22;460;48.734;9.152;2022-11-24T15:54:19;7.20;99.90
947;DHT22;460;48.734;9.152;2022-11-24T15:56:46;7.20;99.90
947;DHT22;460;48.734;9.152;2022-11-24T15:59:15;7.20;99.90
947;DHT22;460;48.734;9.152;2022-11-24T16:01:42;7.20;99.90
947;DHT22;460;48.734;9.152;2022-11-24T16:04:10;7.10;99.90
947;DHT22;460;48.734;9.152;2022-11-24T16:06:37;7.00;99.90
947;DHT22;460;48.734;9.152;2022-11-24T16:09:04;7.10;99.90
947;DHT22;460;48.734;9.152;2022-11-24T16:11:32;7.10;99.90
947;DHT22;460;48.734;9.152;2022-11-24T16:13:59;7.00;99.90
947;DHT22;460;48.734;9.152;2022-11-24T16:16:27;6.90;99.90
947;DHT22;460;48.734;9.152;2022-11-24T16:18:54;6.90;99.90
947;DHT22;460;48.734;9.152;2022-11-24T16:23:49;6.80;99.90
947;DHT22;460;48.734;9.152;2022-11-24T16:26:16;6.80;99.90
947;DHT22;460;48.734;9.152;2022-11-24T16:28:43;6.70;99.90
947;DHT22;460;48.734;9.152;2022-11-24T16:31:10;6.60;99.90
947;DHT22;460;48.734;9.152;2022-11-24T16:33:41;6.60;99.90
947;DHT22;460;48.734;9.152;2022-11-24T16:36:09;6.60;99.90
947;DHT22;460;48.734;9.152;2022-11-24T16:38:36;6.50;99.90
947;DHT22;460;48.734;9.152;2022-11-24T16:41:02;6.50;99.90
947;DHT22;460;48.734;9.152;2022-11-24T16:43:29;6.40;99.90
947;DHT22;460;48.734;9.152;2022-11-24T16:46:05;6.30;99.90
947;DHT22;460;48.734;9.152;2022-11-24T16:48:42;6.30;99.90
947;DHT22;460;48.734;9.152;2022-11-24T16:51:10;6.20;99.90
947;DHT22;460;48.734;9.152;2022-11-24T16:53:37;6.20;99.90
947;DHT22;460;48.734;9.152;2022-11-24T16:56:05;6.20;99.90
947;DHT22;460;48.734;9.152;2022-11-24T16:58:32;6.30;99.90
947;DHT22;460;48.734;9.152;2022-11-24T17:01:02;6.30;99.90
947;DHT22;460;48.734;9.152;2022-11-24T17:03:31;6.50;99.90
947;DHT22;460;48.734;9.152;2022-11-24T17:06:06;6.30;99.90
947;DHT22;460;48.734;9.152;2022-11-24T17:08:34;6.20;99.90
947;DHT22;460;48.734;9.152;2022-11-24T17:11:05;6.20;99.90
947;DHT22;460;48.734;9.152;2022-11-24T17:13:37;4.60;99.90
947;DHT22;460;48.734;9.152;2022-11-24T17:16:05;5.90;99.90
947;DHT22;460;48.734;9.152;2022-11-24T17:18:33;5.70;99.90